Bishop, Texas
Current Conditions -  °F | °C
As of 9:56 PM on Tuesday 21 Oct 2014 (Local Time) from KNQI Reporting Station
Broken Clouds Broken Clouds  
Wind Chill: 74°   Ceiling: 18000
Heat Index: 74°   Visibility: 10mi
Dew Point: 70°   Wind: 8mph
Humidity: 87%   Direction: 70°ENE
Pressure: 29.99"   Gusts: NA
Location:  27.59°N, 97.8°W
Report Text: KNQI 220256Z 07007KT 10SM FEW025 FEW140 BKN180 23/21 A2999 RMK AO2 SLP153 T02330211 53016
Loading
Personal Weather Stations






























Interactive Weather Map New forecast layout! Learn more

10-Day Weather Forecast

Advertisements
Track Severe Weather on mobile